Terminal Aerodrome Forecast
Issued by NWS

Current Version | Previous Version | Text Only | Print | Product List | Glossary On
Versions: 1 2 3 4 5 6 7 8 9 10 11 12 13 14 15 16 17 18 19 20
000
FTUS46 KPDT 250000 AAA
TAFPSC
TAF AMD
KPSC 250001Z 2500/2524 36006KT P6SM SCT015 BKN080
     FM250600 36003KT P6SM OVC010
     FM252000 36004KT P6SM SCT010 SCT180=

USA.gov is the U.S. government's official web portal to all federal, state and local government web resources and services.